Time;durP1;ratioP1;P1;durP2;ratioP2;P2;SDS_P1;SDS_P2;PMS_P1;PMS_P2;Temp;Humidity;BMP_temperature;BMP_pressure;BME280_temperature;BME280_humidity;BME280_pressure;Samples;Min_cycle;Max_cycle;Signal;HPM_P1;HPM_P2
2022/01/22 00:00:29;;;;;;;18.05;8.60;;;;;;;4.22;100.00;103302.06;5096089;28;20038;-73
2022/01/22 00:02:54;;;;;;;16.35;8.82;;;;;;;4.22;100.00;103302.94;5096084;28;20027;-73
2022/01/22 00:05:21;;;;;;;18.75;9.77;;;;;;;4.23;100.00;103311.63;5096045;28;20085;-74
2022/01/22 00:07:46;;;;;;;19.73;8.80;;;;;;;4.23;100.00;103296.97;5095813;28;20035;-72
2022/01/22 00:10:18;;;;;;;17.10;7.55;;;;;;;4.21;100.00;103293.41;5096015;28;20046;-73
2022/01/22 00:13:06;;;;;;;19.17;8.60;;;;;;;4.22;100.00;103294.28;5095884;28;20032;-73
2022/01/22 00:15:32;;;;;;;15.70;8.02;;;;;;;4.25;100.00;103302.22;5094839;28;20048;-73
2022/01/22 00:17:58;;;;;;;19.10;8.90;;;;;;;4.20;100.00;103292.50;5095565;28;20055;-72
2022/01/22 00:20:31;;;;;;;16.17;8.13;;;;;;;4.23;100.00;103302.13;5095416;28;20485;-72
2022/01/22 00:22:56;;;;;;;14.15;8.07;;;;;;;4.20;100.00;103284.72;5095604;28;20032;-72
2022/01/22 00:25:23;;;;;;;16.45;8.43;;;;;;;4.23;100.00;103294.38;5095707;28;20032;-74
2022/01/22 00:27:50;;;;;;;15.40;7.75;;;;;;;4.24;100.00;103295.25;5095458;28;20048;-72
2022/01/22 00:30:23;;;;;;;16.95;7.78;;;;;;;4.24;100.00;103288.38;5095412;28;20495;-72
2022/01/22 00:32:50;;;;;;;18.40;7.22;;;;;;;4.25;100.00;103289.25;5095440;28;20039;-74
2022/01/22 00:35:15;;;;;;;15.45;7.63;;;;;;;4.23;100.00;103272.75;5095431;28;20032;-72
2022/01/22 00:37:42;;;;;;;15.45;8.10;;;;;;;4.25;100.00;103282.38;5095671;28;20031;-74
2022/01/22 00:40:10;;;;;;;19.23;7.40;;;;;;;4.24;100.00;103278.00;5095436;28;20042;-73
2022/01/22 00:42:36;;;;;;;15.20;7.50;;;;;;;4.23;100.00;103273.63;5095245;28;20035;-72
2022/01/22 00:45:02;;;;;;;17.85;7.50;;;;;;;4.21;100.00;103270.06;5095276;28;20035;-73
2022/01/22 00:47:27;;;;;;;18.65;7.38;;;;;;;4.22;100.00;103268.38;5095039;28;20020;-73
2022/01/22 00:49:53;;;;;;;16.85;7.90;;;;;;;4.21;100.00;103267.47;5095111;28;20032;-74
2022/01/22 00:52:18;;;;;;;14.27;7.00;;;;;;;4.18;100.00;103267.31;5094707;28;20070;-73
2022/01/22 00:54:44;;;;;;;16.40;7.80;;;;;;;4.13;100.00;103259.34;5095002;28;20027;-73
2022/01/22 00:57:09;;;;;;;12.43;7.22;;;;;;;4.27;100.00;103279.88;5094740;28;20142;-73
2022/01/22 00:59:34;;;;;;;13.73;7.93;;;;;;;4.21;100.00;103277.84;5095129;28;20031;-71
2022/01/22 01:02:00;;;;;;;17.27;8.48;;;;;;;4.23;100.00;103284.00;5094967;28;20093;-70
2022/01/22 01:04:27;;;;;;;14.13;7.90;;;;;;;4.25;100.00;103292.75;5095036;28;20404;-72
2022/01/22 01:06:53;;;;;;;18.35;7.97;;;;;;;4.24;100.00;103290.97;5094830;28;20032;-72
2022/01/22 01:09:18;;;;;;;18.13;8.45;;;;;;;4.19;100.00;103275.16;5095126;28;20055;-72
2022/01/22 01:11:49;;;;;;;20.27;8.68;;;;;;;4.30;100.00;103298.19;5094897;28;20109;-72
2022/01/22 01:14:21;;;;;;;17.25;8.38;;;;;;;4.29;100.00;103302.47;5077142;28;20359;-71
2022/01/22 01:35:54;;;;;;;22.15;10.30;;;;;;;4.27;100.00;103285.94;5094921;28;20079;-72
2022/01/22 01:38:22;;;;;;;22.73;10.38;;;;;;;4.29;100.00;103289.50;5094814;28;20071;-72
2022/01/22 01:40:56;;;;;;;18.95;10.00;;;;;;;4.23;100.00;103276.22;5094756;28;20028;-72
2022/01/22 01:43:27;;;;;;;22.60;10.25;;;;;;;4.29;100.00;103293.81;5094831;28;20032;-72
2022/01/22 01:45:52;;;;;;;21.70;10.93;;;;;;;4.25;100.00;103292.75;5094517;28;20054;-72
2022/01/22 01:48:23;;;;;;;17.17;10.60;;;;;;;4.27;100.00;103291.13;5094589;28;20024;-71
2022/01/22 01:50:49;;;;;;;21.13;11.05;;;;;;;4.26;100.00;103283.28;5094568;28;20124;-74
2022/01/22 01:53:47;;;;;;;24.30;10.98;;;;;;;4.25;100.00;103286.69;5094711;28;20063;-73
2022/01/22 01:57:24;;;;;;;18.90;10.23;;;;;;;4.25;100.00;103290.16;5092926;28;20380;-72
2022/01/22 01:58:49;;;;;;;18.10;11.35;;;;;;;4.25;100.00;103294.44;5093902;28;20032;-72
2022/01/22 02:01:14;;;;;;;19.40;11.20;;;;;;;4.20;100.00;103276.94;5097918;28;20039;-70
2022/01/22 02:03:39;;;;;;;23.13;11.60;;;;;;;4.30;100.00;103283.53;5098243;28;20474;-71
2022/01/22 02:06:05;;;;;;;20.90;11.43;;;;;;;4.27;100.00;103275.59;5098095;28;20060;-71
2022/01/22 02:08:30;;;;;;;16.75;11.70;;;;;;;4.29;100.00;103286.03;5098283;28;20324;-71
2022/01/22 02:10:59;;;;;;;22.98;12.40;;;;;;;4.21;100.00;103275.25;5097937;28;20149;-71
2022/01/22 02:13:47;;;;;;;25.08;12.98;;;;;;;4.16;100.00;103271.53;5098074;28;20042;-71
2022/01/22 02:24:50;;;;;;;22.38;13.45;;;;;;;4.23;100.00;103280.50;5098285;28;20050;-72
2022/01/22 02:27:16;;;;;;;28.52;14.68;;;;;;;4.27;100.00;103285.94;5097979;28;20063;-73
2022/01/22 02:29:42;;;;;;;28.13;14.73;;;;;;;4.24;100.00;103272.81;5097822;28;20089;-72
2022/01/22 02:35:03;;;;;;;31.27;15.50;;;;;;;4.27;100.00;103280.75;5097796;28;20086;-72
2022/01/22 02:37:34;;;;;;;28.10;17.60;;;;;;;4.19;100.00;103282.94;5097690;28;20111;-72
2022/01/22 02:40:12;;;;;;;32.05;18.70;;;;;;;4.17;100.00;103270.72;5097761;28;20311;-72
2022/01/22 02:42:37;;;;;;;30.52;17.98;;;;;;;4.18;100.00;103286.34;5097394;28;20032;-72
2022/01/22 02:45:08;;;;;;;32.25;17.48;;;;;;;4.14;100.00;103280.94;5097514;28;20039;-73
2022/01/22 02:47:34;;;;;;;33.78;19.17;;;;;;;4.11;100.00;103279.09;5097498;28;20020;-72
2022/01/22 02:49:59;;;;;;;31.52;19.60;;;;;;;4.10;100.00;103286.78;5097645;28;20446;-74
2022/01/22 02:52:25;;;;;;;35.83;19.98;;;;;;;4.09;100.00;103283.28;5097464;28;20428;-72
2022/01/22 02:54:50;;;;;;;38.13;19.00;;;;;;;4.05;100.00;103275.28;5097015;28;20355;-73
2022/01/22 02:57:16;;;;;;;34.90;20.20;;;;;;;4.11;100.00;103285.97;5097004;28;20031;-74
2022/01/22 02:59:41;;;;;;;34.33;19.77;;;;;;;4.13;100.00;103289.53;5097150;28;20032;-72
2022/01/22 03:02:12;;;;;;;38.13;20.60;;;;;;;4.15;100.00;103293.09;5097217;28;20327;-72
2022/01/22 03:04:38;;;;;;;31.95;20.20;;;;;;;4.15;100.00;103295.69;5097276;28;20112;-71
2022/01/22 03:07:03;;;;;;;31.92;19.77;;;;;;;4.15;100.00;103293.09;5097079;28;20111;-71
2022/01/22 03:09:31;;;;;;;35.05;20.20;;;;;;;4.17;100.00;103294.94;5096832;28;20036;-71
2022/01/22 03:12:18;;;;;;;34.15;20.15;;;;;;;4.19;100.00;103295.00;5097062;28;20359;-73
2022/01/22 03:27:41;;;;;;;33.03;20.13;;;;;;;4.19;100.00;103282.06;5096374;28;20050;-72
2022/01/22 03:30:07;;;;;;;37.60;21.30;;;;;;;4.16;100.00;103271.53;5097201;28;20036;-72
2022/01/22 03:32:46;;;;;;;35.45;21.80;;;;;;;4.22;100.00;103287.41;5096604;28;20035;-72
2022/01/22 03:37:39;;;;;;;36.83;22.27;;;;;;;4.16;100.00;103280.19;5096346;28;20040;-72
2022/01/22 03:40:06;;;;;;;36.88;21.88;;;;;;;4.19;100.00;103284.66;5096750;28;20024;-75
2022/01/22 03:42:32;;;;;;;39.47;22.98;;;;;;;4.24;100.00;103293.56;5096496;28;20071;-72
2022/01/22 03:44:57;;;;;;;40.72;22.92;;;;;;;4.20;100.00;103292.50;5096216;28;20028;-72
2022/01/22 03:47:22;;;;;;;35.85;22.75;;;;;;;4.19;100.00;103289.81;5096155;28;20161;-72
2022/01/22 03:49:48;;;;;;;43.20;22.95;;;;;;;4.20;100.00;103291.59;5096211;28;20028;-75
2022/01/22 03:52:13;;;;;;;40.05;25.17;;;;;;;4.25;100.00;103297.03;5096389;28;20043;-72
2022/01/22 03:54:39;;;;;;;43.90;23.52;;;;;;;4.25;100.00;103297.94;5096272;28;20028;-72
2022/01/22 03:57:04;;;;;;;50.50;24.30;;;;;;;4.25;100.00;103292.75;5096187;28;20095;-71
2022/01/22 03:59:30;;;;;;;44.88;25.02;;;;;;;4.28;100.00;103287.72;5095806;28;20063;-71
2022/01/22 04:04:45;;;;;;;42.28;25.48;;;;;;;4.30;100.00;103288.69;5096386;28;20459;-72
2022/01/22 04:09:43;;;;;;;50.38;26.38;;;;;;;4.27;100.00;103278.16;5096026;28;20363;-74
2022/01/22 04:12:11;;;;;;;50.47;27.65;;;;;;;4.26;100.00;103285.88;5095951;28;20058;-73
2022/01/22 04:14:44;;;;;;;51.13;28.08;;;;;;;4.22;100.00;103278.72;5095478;28;20031;-72
2022/01/22 04:25:04;;;;;;;50.17;28.77;;;;;;;4.27;100.00;103282.47;5095639;28;20058;-73
2022/01/22 04:27:30;;;;;;;54.13;29.08;;;;;;;4.30;100.00;103280.03;5095835;28;20024;-72
2022/01/22 04:29:58;;;;;;;50.22;29.52;;;;;;;4.29;100.00;103280.84;5095836;28;20173;-72
2022/01/22 04:32:31;;;;;;;57.20;30.02;;;;;;;4.25;100.00;103278.91;5095690;28;20059;-72
2022/01/22 04:34:57;;;;;;;51.50;29.60;;;;;;;4.30;100.00;103282.63;5095105;28;20031;-71
2022/01/22 04:37:24;;;;;;;55.50;32.40;;;;;;;4.28;100.00;103282.53;5095350;28;20392;-71
2022/01/22 04:39:50;;;;;;;54.58;30.83;;;;;;;4.30;100.00;103278.34;5095299;28;20028;-70
2022/01/22 04:42:16;;;;;;;54.50;31.42;;;;;;;4.30;100.00;103277.44;5095556;28;20042;-72
2022/01/22 04:47:26;;;;;;;58.92;31.52;;;;;;;4.34;100.00;103289.72;5095438;28;20063;-71
2022/01/22 04:55:12;;;;;;;54.13;31.30;;;;;;;4.37;100.00;103289.88;5022777;28;20057;-72
2022/01/22 04:57:44;;;;;;;57.03;31.27;;;;;;;4.38;100.00;103286.47;5095274;28;20493;-73
2022/01/22 05:00:12;;;;;;;50.95;31.15;;;;;;;4.41;100.00;103290.13;5094894;28;20055;-71
2022/01/22 05:02:39;;;;;;;58.28;31.35;;;;;;;4.39;100.00;103283.09;5095069;28;20078;-73
2022/01/22 05:05:05;;;;;;;59.92;30.90;;;;;;;4.34;100.00;103282.84;5094991;28;20052;-72
2022/01/22 05:07:30;;;;;;;55.28;31.15;;;;;;;4.32;100.00;103276.72;5095092;28;20143;-72
2022/01/22 05:09:56;;;;;;;61.00;31.17;;;;;;;4.35;100.00;103275.94;5095332;28;20425;-73
2022/01/22 05:12:21;;;;;;;55.55;31.52;;;;;;;4.42;100.00;103285.84;5095109;28;20043;-72
2022/01/22 05:14:46;;;;;;;55.50;31.10;;;;;;;4.41;100.00;103284.94;5094097;28;20119;-72
2022/01/22 05:17:12;;;;;;;57.47;31.52;;;;;;;4.43;100.00;103287.63;5094761;28;20344;-73
2022/01/22 05:22:57;;;;;;;55.70;30.90;;;;;;;4.38;100.00;103271.81;5094998;28;20039;-73
2022/01/22 05:24:56;;;;;;;55.03;30.98;;;;;;;4.47;100.00;103290.44;5086740;28;20050;-72
2022/01/22 05:27:53;;;;;;;58.80;31.08;;;;;;;4.45;100.00;103284.28;5094872;28;20156;-71
2022/01/22 05:30:49;;;;;;;58.67;31.48;;;;;;;4.44;100.00;103277.31;5094991;28;20108;-72
2022/01/22 05:38:27;;;;;;;55.05;30.33;;;;;;;4.48;100.00;103279.28;5098381;28;20047;-72
2022/01/22 05:40:52;;;;;;;55.97;31.20;;;;;;;4.48;100.00;103279.28;5098382;28;20040;-74
2022/01/22 05:43:18;;;;;;;56.38;31.63;;;;;;;4.50;100.00;103281.94;5098788;28;20123;-74
2022/01/22 05:45:43;;;;;;;51.70;30.15;;;;;;;4.43;100.00;103270.34;5098623;28;20035;-74
2022/01/22 05:48:08;;;;;;;56.00;31.40;;;;;;;4.44;100.00;103272.16;5098382;28;20028;-72
2022/01/22 05:50:53;;;;;;;52.85;31.58;;;;;;;4.41;100.00;103271.09;5098766;28;20096;-72
2022/01/22 06:01:12;;;;;;;56.00;30.10;;;;;;;4.52;100.00;103282.88;5098347;28;20054;-72
2022/01/22 06:03:37;;;;;;;57.22;28.40;;;;;;;4.51;100.00;103283.69;5098210;28;20339;-73
2022/01/22 06:06:04;;;;;;;58.30;30.52;;;;;;;4.55;100.00;103288.22;5098071;28;20044;-72
2022/01/22 06:08:32;;;;;;;53.72;28.77;;;;;;;4.52;100.00;103283.78;5098237;28;20385;-72
2022/01/22 06:11:00;;;;;;;49.40;29.50;;;;;;;4.50;100.00;103279.34;5098247;28;20020;-71
2022/01/22 06:13:43;;;;;;;53.00;29.73;;;;;;;4.58;100.00;103303.06;5098208;28;20099;-72
2022/01/22 06:16:08;;;;;;;54.53;29.23;;;;;;;4.54;100.00;103296.81;5098136;28;20053;-72
2022/01/22 06:18:33;;;;;;;52.80;30.23;;;;;;;4.55;100.00;103301.19;5097577;28;20062;-71
2022/01/22 06:20:59;;;;;;;58.92;29.98;;;;;;;4.50;100.00;103287.13;5097906;28;20112;-72
2022/01/22 06:23:24;;;;;;;57.72;29.77;;;;;;;4.53;100.00;103290.75;5097985;28;20111;-72
2022/01/22 06:25:49;;;;;;;55.33;28.83;;;;;;;4.55;100.00;103289.13;5097809;28;20115;-72
2022/01/22 06:28:14;;;;;;;52.70;28.70;;;;;;;4.56;100.00;103277.03;5097884;28;20028;-71
2022/01/22 06:30:40;;;;;;;56.75;28.25;;;;;;;4.50;100.00;103277.63;5097747;28;20031;-72
2022/01/22 06:33:05;;;;;;;58.80;28.80;;;;;;;4.58;100.00;103284.91;5097913;28;20036;-73
2022/01/22 06:35:30;;;;;;;58.13;29.38;;;;;;;4.50;100.00;103279.34;5097692;28;20035;-72
2022/01/22 06:37:59;;;;;;;54.88;30.10;;;;;;;4.56;100.00;103297.78;5097536;28;20407;-74
2022/01/22 06:42:49;;;;;;;57.53;28.23;;;;;;;4.52;100.00;103286.38;5097895;28;20051;-72
2022/01/22 06:45:15;;;;;;;54.00;28.58;;;;;;;4.55;100.00;103298.59;5096993;28;20058;-73
2022/01/22 06:47:40;;;;;;;54.88;29.00;;;;;;;4.60;100.00;103311.81;5097592;28;20029;-71
2022/01/22 06:50:07;;;;;;;61.20;29.80;;;;;;;4.56;100.00;103308.16;5097356;28;20367;-71
2022/01/22 06:52:33;;;;;;;49.95;26.95;;;;;;;4.59;100.00;103310.03;5097376;28;20086;-71
2022/01/22 06:54:58;;;;;;;52.10;27.10;;;;;;;4.61;100.00;103308.41;5097053;28;20388;-69
2022/01/22 06:57:23;;;;;;;54.25;27.52;;;;;;;4.61;100.00;103305.81;5097420;28;20111;-72
2022/01/22 06:59:49;;;;;;;52.50;26.80;;;;;;;4.65;100.00;103315.53;5097237;28;20024;-72
2022/01/22 07:02:15;;;;;;;52.22;26.27;;;;;;;4.62;100.00;103305.88;5097344;28;20027;-69
2022/01/22 07:04:40;;;;;;;50.28;25.55;;;;;;;4.65;100.00;103313.81;5097242;28;20036;-70
2022/01/22 07:07:09;;;;;;;52.13;25.45;;;;;;;4.67;100.00;103312.19;5097399;28;20098;-61
2022/01/22 07:09:36;;;;;;;53.55;25.85;;;;;;;4.69;100.00;103312.25;5096945;28;20373;-69
2022/01/22 07:12:01;;;;;;;49.45;25.92;;;;;;;4.68;100.00;103321.72;5097094;28;20137;-72
2022/01/22 07:14:26;;;;;;;47.88;26.05;;;;;;;4.66;100.00;103322.50;5096920;28;20065;-72
2022/01/22 07:16:52;;;;;;;52.00;26.48;;;;;;;4.67;100.00;103324.28;5096729;28;20056;-71
2022/01/22 07:19:19;;;;;;;46.90;24.92;;;;;;;4.68;100.00;103339.88;5096717;28;20385;-71
2022/01/22 07:21:52;;;;;;;47.33;25.17;;;;;;;4.71;100.00;103350.41;5096907;28;20031;-71
2022/01/22 07:24:23;;;;;;;48.60;25.45;;;;;;;4.75;100.00;103356.66;5096861;28;20028;-71
2022/01/22 07:26:50;;;;;;;45.67;24.55;;;;;;;4.75;100.00;103354.97;5096807;28;20040;-73
2022/01/22 07:29:15;;;;;;;51.78;25.40;;;;;;;4.75;100.00;103351.47;5096675;28;20031;-73
2022/01/22 07:31:40;;;;;;;48.92;23.80;;;;;;;4.72;100.00;103343.53;5096833;28;20039;-67
2022/01/22 07:34:06;;;;;;;44.22;24.50;;;;;;;4.74;100.00;103348.00;5096287;28;20113;-72
2022/01/22 07:36:31;;;;;;;53.63;24.67;;;;;;;4.77;100.00;103355.03;5096259;28;20054;-72
2022/01/22 07:38:56;;;;;;;46.20;24.58;;;;;;;4.73;100.00;103345.31;5096299;28;20032;-71
2022/01/22 07:41:21;;;;;;;44.15;24.42;;;;;;;4.72;100.00;103348.72;5096027;28;20032;-73
2022/01/22 07:43:48;;;;;;;45.83;23.73;;;;;;;4.79;100.00;103362.09;5096644;28;20031;-71
2022/01/22 07:46:13;;;;;;;48.72;24.08;;;;;;;4.80;100.00;103363.88;5096585;28;20104;-73
2022/01/22 07:48:38;;;;;;;44.70;23.92;;;;;;;4.78;100.00;103356.81;5096779;28;20423;-71
2022/01/22 07:51:04;;;;;;;46.30;24.38;;;;;;;4.73;100.00;103342.72;5096147;28;20086;-72
2022/01/22 07:53:30;;;;;;;49.45;24.52;;;;;;;4.84;100.00;103358.03;5095987;28;20554;-71
2022/01/22 07:55:55;;;;;;;47.25;24.83;;;;;;;4.85;100.00;103358.88;5096370;28;20039;-73
2022/01/22 07:58:20;;;;;;;43.53;24.27;;;;;;;4.84;100.00;103355.44;5095195;28;20128;-73
2022/01/22 08:00:45;;;;;;;52.83;23.90;;;;;;;4.87;100.00;103354.69;5096055;28;20032;-73
2022/01/22 08:03:11;;;;;;;50.20;25.25;;;;;;;4.84;100.00;103345.06;5096171;28;20443;-71
2022/01/22 08:05:36;;;;;;;48.63;23.48;;;;;;;4.88;100.00;103353.88;5096101;28;20032;-71
2022/01/22 08:08:03;;;;;;;48.63;24.25;;;;;;;4.92;100.00;103354.91;5095995;28;20035;-71
2022/01/22 08:10:28;;;;;;;48.10;24.33;;;;;;;4.90;100.00;103355.72;5095861;28;20028;-72
2022/01/22 08:12:55;;;;;;;45.83;23.92;;;;;;;4.85;100.00;103339.03;5095782;28;20046;-72
2022/01/22 08:15:21;;;;;;;49.63;23.98;;;;;;;4.95;100.00;103363.75;5096100;28;20083;-71
2022/01/22 08:17:47;;;;;;;47.30;23.95;;;;;;;4.97;100.00;103350.84;5095968;28;20091;-70
2022/01/22 08:20:14;;;;;;;51.13;25.30;;;;;;;4.96;100.00;103349.97;5095704;28;20505;-72
2022/01/22 08:22:43;;;;;;;43.55;23.02;;;;;;;4.98;100.00;103350.94;5095883;28;20046;-71
2022/01/22 08:25:10;;;;;;;46.47;22.70;;;;;;;5.01;100.00;103355.38;5095902;28;20119;-71
2022/01/22 08:27:42;;;;;;;46.38;23.20;;;;;;;5.00;100.00;103341.53;5095627;28;20028;-73
2022/01/22 08:30:09;;;;;;;;;;;;;;;5.13;100.00;103359.47;5095935;28;20039;-71
2022/01/22 08:32:58;;;;;;;43.35;23.27;;;;;;;5.10;100.00;103356.72;5095404;28;20334;-73
2022/01/22 08:38:04;;;;;;;50.55;25.02;;;;;;;5.16;100.00;103353.53;5095029;28;20039;-71
2022/01/22 08:40:29;;;;;;;43.40;24.42;;;;;;;5.15;100.00;103350.06;5095290;28;20032;-71
2022/01/22 08:42:54;;;;;;;36.78;23.10;;;;;;;5.19;100.00;103356.28;5095405;28;20081;-72
2022/01/22 08:45:20;;;;;;;44.25;23.40;;;;;;;5.23;100.00;103358.19;5095229;28;20367;-73
2022/01/22 08:47:45;;;;;;;41.70;23.27;;;;;;;5.22;100.00;103352.13;5095129;28;20081;-72
2022/01/22 08:50:10;;;;;;;41.28;23.10;;;;;;;5.28;100.00;103350.66;5095256;28;20112;-72
2022/01/22 08:52:36;;;;;;;42.65;22.55;;;;;;;5.30;100.00;103349.91;5095148;28;20347;-71
2022/01/22 08:55:06;;;;;;;43.35;22.15;;;;;;;5.33;100.00;103350.06;5095127;28;20040;-73
2022/01/22 08:57:31;;;;;;;43.08;21.77;;;;;;;5.37;100.00;103357.16;5095288;28;20028;-71
2022/01/22 08:59:57;;;;;;;44.30;22.67;;;;;;;5.37;100.00;103361.50;5095112;28;20040;-70
2022/01/22 09:02:22;;;;;;;44.28;22.98;;;;;;;5.40;100.00;103367.69;5094664;28;20032;-70
2022/01/22 09:04:48;;;;;;;38.17;20.95;;;;;;;5.42;100.00;103373.84;5094809;28;20054;-70
2022/01/22 09:07:13;;;;;;;39.63;21.70;;;;;;;5.40;100.00;103362.50;5094965;28;20036;-70
2022/01/22 09:09:39;;;;;;;36.17;20.85;;;;;;;5.45;100.00;103378.31;5095114;28;20020;-71
2022/01/22 09:12:06;;;;;;;41.00;20.10;;;;;;;5.48;100.00;103386.25;5095068;28;20070;-71
2022/01/22 09:14:32;;;;;;;37.22;20.13;;;;;;;5.46;100.00;103382.69;5094853;28;20028;-71
2022/01/22 09:16:59;;;;;;;34.13;19.05;;;;;;;5.54;100.00;103395.22;5094410;28;20521;-71
2022/01/22 09:19:32;;;;;;;35.65;18.25;;;;;;;5.57;100.00;103397.06;5094989;28;20028;-72
2022/01/22 09:21:57;;;;;;;31.08;18.63;;;;;;;5.58;100.00;103391.94;5094886;28;20075;-71
2022/01/22 09:24:23;;;;;;;36.45;19.50;;;;;;;5.62;100.00;103399.88;5095143;28;20058;-71
2022/01/22 09:26:48;;;;;;;29.05;18.50;;;;;;;5.62;100.00;103390.41;5094883;28;20498;-72
2022/01/22 09:29:15;;;;;;;33.47;18.00;;;;;;;5.60;100.00;103386.81;5094751;28;20028;-71
2022/01/22 09:31:40;;;;;;;31.58;17.73;;;;;;;5.65;100.00;103392.25;5094723;28;20028;-72
2022/01/22 09:34:06;;;;;;;36.78;18.35;;;;;;;5.70;100.00;103389.06;5094839;28;20047;-70
2022/01/22 09:36:32;;;;;;;35.17;18.25;;;;;;;5.73;100.00;103383.09;5094676;28;20063;-71
2022/01/22 09:38:57;;;;;;;36.47;19.20;;;;;;;5.73;100.00;103386.59;5094603;28;20028;-70
2022/01/22 09:41:25;;;;;;;36.85;18.42;;;;;;;5.76;100.00;103394.53;5094666;28;20148;-71
2022/01/22 09:43:50;;;;;;;37.17;18.65;;;;;;;5.79;100.00;103397.28;5094739;28;20115;-71
2022/01/22 09:46:16;;;;;;;30.13;18.05;;;;;;;5.78;100.00;103405.88;5094750;28;20067;-71
2022/01/22 09:48:44;;;;;;;30.58;18.77;;;;;;;5.83;100.00;103413.91;5094531;28;20032;-70
2022/01/22 09:51:11;;;;;;;37.50;18.52;;;;;;;5.84;100.00;103415.69;5094560;28;20347;-71
2022/01/22 09:53:38;;;;;;;34.65;18.13;;;;;;;5.90;100.00;103418.59;5094956;28;20032;-71
2022/01/22 09:56:04;;;;;;;32.20;18.30;;;;;;;5.92;100.00;103420.44;5094625;28;20067;-71
2022/01/22 09:58:30;;;;;;;40.25;19.55;;;;;;;5.91;100.00;103409.97;5094440;28;20056;-70
2022/01/22 10:01:26;;;;;;;31.92;18.33;;;;;;;6.00;100.00;103420.81;5094480;28;20035;-71
2022/01/22 10:03:59;;;;;;;34.08;18.58;;;;;;;5.94;100.00;103416.22;5094511;28;20024;-71
2022/01/22 10:06:26;;;;;;;33.00;18.63;;;;;;;5.89;100.00;103409.00;5094645;28;20028;-72
2022/01/22 10:08:56;;;;;;;38.30;19.13;;;;;;;6.03;100.00;103422.69;5094351;28;20127;-73
2022/01/22 10:11:26;;;;;;;34.13;18.38;;;;;;;6.04;100.00;103421.84;5101957;28;20474;-72
2022/01/22 10:13:54;;;;;;;34.72;18.55;;;;;;;5.93;100.00;103414.44;5104035;28;20024;-71
2022/01/22 10:16:23;;;;;;;29.67;17.77;;;;;;;6.02;100.00;103432.19;5101592;28;20051;-71
2022/01/22 10:19:17;;;;;;;36.53;18.73;;;;;;;6.09;100.00;103420.34;5107754;28;20050;-71
2022/01/22 10:21:43;;;;;;;32.83;18.40;;;;;;;5.97;100.00;103409.38;5099704;28;20445;-71
2022/01/22 10:24:45;;;;;;;35.28;18.42;;;;;;;6.04;100.00;103427.06;5105245;28;20028;-71
2022/01/22 10:27:33;;;;;;;31.85;18.75;;;;;;;6.06;100.00;103421.09;5108179;28;20027;-72
2022/01/22 10:30:03;;;;;;;31.75;18.55;;;;;;;6.06;100.00;103423.69;5112899;28;20020;-73
2022/01/22 10:32:47;;;;;;;31.60;18.75;;;;;;;6.01;100.00;103417.41;5108177;28;20059;-70
2022/01/22 10:35:25;;;;;;;34.22;19.65;;;;;;;6.10;100.00;103427.31;5108511;28;20031;-71
2022/01/22 10:37:58;;;;;;;36.38;19.15;;;;;;;6.09;100.00;103425.53;5118068;28;20063;-70
2022/01/22 10:40:32;;;;;;;33.33;18.75;;;;;;;6.11;100.00;103419.59;5117195;28;20070;-72
2022/01/22 10:43:34;;;;;;;32.38;19.45;;;;;;;6.14;100.00;103416.25;5118016;28;20034;-71
2022/01/22 10:46:19;;;;;;;36.03;19.08;;;;;;;6.15;100.00;103410.22;5118091;28;20417;-72
2022/01/22 10:48:53;;;;;;;35.38;19.45;;;;;;;6.16;100.00;103417.22;5117624;28;20042;-73
2022/01/22 10:51:19;;;;;;;38.05;21.00;;;;;;;6.13;100.00;103412.75;5117742;28;20330;-72
2022/01/22 10:53:58;;;;;;;35.20;19.88;;;;;;;6.17;100.00;103439.78;5117834;28;20031;-70
2022/01/22 10:56:25;;;;;;;31.70;19.25;;;;;;;6.13;100.00;103433.56;5110572;28;20055;-70
2022/01/22 10:59:00;;;;;;;34.72;20.45;;;;;;;6.17;100.00;103429.41;5106600;28;20020;-70
2022/01/22 11:01:44;;;;;;;33.95;20.75;;;;;;;6.18;100.00;103426.88;5099533;28;20428;-72
2022/01/22 11:04:14;;;;;;;38.38;20.85;;;;;;;6.17;100.00;103426.78;5097247;28;20028;-73
2022/01/22 11:07:02;;;;;;;35.90;20.60;;;;;;;6.20;100.00;103433.03;5097529;28;20039;-62
2022/01/22 11:09:31;;;;;;;34.50;20.23;;;;;;;6.17;100.00;103429.41;5097020;28;20363;-71
2022/01/22 11:11:58;;;;;;;35.70;20.45;;;;;;;6.15;100.00;103421.53;5097185;28;20355;-72
2022/01/22 11:14:24;;;;;;;39.35;22.15;;;;;;;6.10;100.00;103404.81;5098418;28;20409;-72
2022/01/22 11:16:52;;;;;;;33.72;21.45;;;;;;;6.17;100.00;103414.69;5111809;28;20044;-72
2022/01/22 11:19:20;;;;;;;36.97;21.30;;;;;;;6.17;100.00;103412.09;5117450;28;20030;-72
2022/01/22 11:21:49;;;;;;;34.47;21.13;;;;;;;6.19;100.00;103412.16;5108095;28;20027;-72
2022/01/22 11:24:18;;;;;;;33.42;19.85;;;;;;;6.21;100.00;103406.22;5104682;28;20042;-72
2022/01/22 11:26:47;;;;;;;35.45;20.58;;;;;;;6.22;100.00;103400.19;5099151;28;20040;-71
2022/01/22 11:29:15;;;;;;;40.80;21.02;;;;;;;6.25;100.00;103395.09;5096648;28;20092;-62
2022/01/22 11:31:45;;;;;;;37.17;20.77;;;;;;;6.28;100.00;103402.16;5098539;28;20039;-70
2022/01/22 11:34:11;;;;;;;37.42;21.25;;;;;;;6.26;100.00;103403.78;5105874;28;20073;-70
2022/01/22 11:36:44;;;;;;;39.20;20.63;;;;;;;6.26;100.00;103403.78;5117117;28;20039;-70
2022/01/22 11:39:20;;;;;;;35.35;21.42;;;;;;;6.17;100.00;103383.50;5116636;28;20050;-70
2022/01/22 11:41:54;;;;;;;37.28;22.05;;;;;;;6.28;100.00;103413.44;5116943;28;20042;-71
2022/01/22 11:44:36;;;;;;;41.03;22.38;;;;;;;6.32;100.00;103400.59;5111801;28;20056;-71
2022/01/22 11:47:14;;;;;;;39.42;23.42;;;;;;;6.33;100.00;103392.88;5103423;28;20134;-70
2022/01/22 11:50:00;;;;;;;43.60;23.50;;;;;;;6.35;100.00;103387.75;5116584;28;20031;-71
2022/01/22 11:52:29;;;;;;;35.72;22.23;;;;;;;6.41;100.00;103386.28;5116345;28;20027;-71
2022/01/22 11:54:59;;;;;;;37.85;23.65;;;;;;;6.43;100.00;103391.56;5115927;28;20027;-72
2022/01/22 11:57:27;;;;;;;42.33;24.48;;;;;;;6.37;100.00;103387.00;5111981;28;20107;-70
2022/01/22 12:00:17;;;;;;;42.45;24.00;;;;;;;6.44;100.00;103394.22;5104938;28;20047;-71
2022/01/22 12:02:44;;;;;;;45.42;25.00;;;;;;;6.40;100.00;103397.53;5110449;28;20043;-70
2022/01/22 12:05:09;;;;;;;41.28;24.10;;;;;;;6.39;100.00;103397.47;5111844;28;20050;-70
2022/01/22 12:07:36;;;;;;;39.83;24.02;;;;;;;6.40;100.00;103407.03;5110989;28;20451;-74
2022/01/22 12:10:17;;;;;;;38.70;24.27;;;;;;;6.43;100.00;103404.56;5108699;28;20131;-71
2022/01/22 12:15:30;;;;;;;40.45;23.98;;;;;;;6.42;100.00;103395.84;5104881;28;20131;-71
2022/01/22 12:18:05;;;;;;;42.05;24.30;;;;;;;6.45;100.00;103393.41;5104240;28;20045;-70
2022/01/22 12:23:31;;;;;;;43.90;24.60;;;;;;;6.45;100.00;103384.72;5105020;28;20032;-71
2022/01/22 12:25:58;;;;;;;49.42;25.27;;;;;;;6.35;100.00;103378.22;5094821;28;20110;-71
2022/01/22 12:28:35;;;;;;;42.08;25.10;;;;;;;6.39;100.00;103397.47;5104686;28;20125;-72
2022/01/22 12:31:03;;;;;;;44.95;25.13;;;;;;;6.36;100.00;103411.22;5097984;28;20061;-71
2022/01/22 12:33:29;;;;;;;47.42;25.58;;;;;;;6.34;100.00;103411.97;5095517;28;20122;-72
2022/01/22 12:36:18;;;;;;;51.13;26.33;;;;;;;6.34;100.00;103401.56;5095469;28;20066;-70
2022/01/22 12:38:56;;;;;;;43.33;24.27;;;;;;;6.29;100.00;103401.34;5095386;28;20369;-62
2022/01/22 12:46:57;;;;;;;43.10;26.10;;;;;;;6.24;100.00;103400.22;5095446;28;20044;-71
2022/01/22 12:49:24;;;;;;;43.78;26.63;;;;;;;6.18;100.00;103392.19;5095489;28;20046;-71
2022/01/22 12:51:57;;;;;;;44.10;26.35;;;;;;;6.20;100.00;103404.44;5097520;28;20080;-72
2022/01/22 12:54:31;;;;;;;45.97;27.17;;;;;;;6.15;100.00;103399.84;5095183;28;20040;-71
2022/01/22 12:57:11;;;;;;;48.58;27.15;;;;;;;6.13;100.00;103404.06;5095243;28;20031;-70